sensor_id;sensor_type;location;lat;lon;timestamp;P1;durP1;ratioP1;P2;durP2;ratioP2
18125;SDS011;53956;52.442;13.284;2023-02-28T00:02:25;8.73;;;5.10;;
18125;SDS011;53956;52.442;13.284;2023-02-28T00:04:52;9.40;;;5.67;;
18125;SDS011;53956;52.442;13.284;2023-02-28T00:07:26;9.87;;;5.80;;
18125;SDS011;53956;52.442;13.284;2023-02-28T00:09:52;8.27;;;5.53;;
18125;SDS011;53956;52.442;13.284;2023-02-28T00:12:19;9.00;;;5.87;;
18125;SDS011;53956;52.442;13.284;2023-02-28T00:14:46;10.73;;;6.00;;
18125;SDS011;53956;52.442;13.284;2023-02-28T00:17:14;8.37;;;5.90;;
18125;SDS011;53956;52.442;13.284;2023-02-28T00:19:42;8.77;;;5.83;;
18125;SDS011;53956;52.442;13.284;2023-02-28T00:22:09;10.77;;;6.03;;
18125;SDS011;53956;52.442;13.284;2023-02-28T00:24:36;10.27;;;5.80;;
18125;SDS011;53956;52.442;13.284;2023-02-28T00:27:03;8.67;;;5.53;;
18125;SDS011;53956;52.442;13.284;2023-02-28T00:29:29;10.27;;;5.53;;
18125;SDS011;53956;52.442;13.284;2023-02-28T00:31:56;10.07;;;6.03;;
18125;SDS011;53956;52.442;13.284;2023-02-28T00:34:24;8.13;;;5.73;;
18125;SDS011;53956;52.442;13.284;2023-02-28T00:36:51;9.40;;;5.97;;
18125;SDS011;53956;52.442;13.284;2023-02-28T00:39:18;10.63;;;6.27;;
18125;SDS011;53956;52.442;13.284;2023-02-28T00:41:45;9.47;;;6.00;;
18125;SDS011;53956;52.442;13.284;2023-02-28T00:44:12;10.07;;;6.90;;
18125;SDS011;53956;52.442;13.284;2023-02-28T00:46:39;10.90;;;6.37;;
18125;SDS011;53956;52.442;13.284;2023-02-28T00:49:06;8.80;;;6.40;;
18125;SDS011;53956;52.442;13.284;2023-02-28T00:51:35;9.67;;;6.63;;
18125;SDS011;53956;52.442;13.284;2023-02-28T00:54:02;9.80;;;6.70;;
18125;SDS011;53956;52.442;13.284;2023-02-28T00:56:29;12.97;;;6.57;;
18125;SDS011;53956;52.442;13.284;2023-02-28T00:58:56;7.67;;;5.80;;
18125;SDS011;53956;52.442;13.284;2023-02-28T01:01:22;11.53;;;6.43;;
18125;SDS011;53956;52.442;13.284;2023-02-28T01:03:49;9.57;;;6.53;;
18125;SDS011;53956;52.442;13.284;2023-02-28T01:06:16;10.50;;;6.57;;
18125;SDS011;53956;52.442;13.284;2023-02-28T01:08:44;12.37;;;6.33;;
18125;SDS011;53956;52.442;13.284;2023-02-28T01:11:11;8.63;;;6.47;;
18125;SDS011;53956;52.442;13.284;2023-02-28T01:13:40;9.70;;;7.20;;
18125;SDS011;53956;52.442;13.284;2023-02-28T01:16:07;10.77;;;7.23;;
18125;SDS011;53956;52.442;13.284;2023-02-28T01:18:34;10.03;;;7.17;;
18125;SDS011;53956;52.442;13.284;2023-02-28T01:21:03;11.00;;;6.57;;
18125;SDS011;53956;52.442;13.284;2023-02-28T01:23:30;10.70;;;6.67;;
18125;SDS011;53956;52.442;13.284;2023-02-28T01:25:58;10.80;;;6.90;;
18125;SDS011;53956;52.442;13.284;2023-02-28T01:28:30;9.80;;;6.30;;
18125;SDS011;53956;52.442;13.284;2023-02-28T01:30:57;9.43;;;7.30;;
18125;SDS011;53956;52.442;13.284;2023-02-28T01:33:24;10.47;;;6.70;;
18125;SDS011;53956;52.442;13.284;2023-02-28T01:35:57;9.43;;;7.23;;
18125;SDS011;53956;52.442;13.284;2023-02-28T01:38:23;10.10;;;6.60;;
18125;SDS011;53956;52.442;13.284;2023-02-28T01:40:53;9.90;;;7.20;;
18125;SDS011;53956;52.442;13.284;2023-02-28T01:43:22;12.23;;;6.93;;
18125;SDS011;53956;52.442;13.284;2023-02-28T01:45:51;10.07;;;7.50;;
18125;SDS011;53956;52.442;13.284;2023-02-28T01:48:18;12.23;;;7.80;;
18125;SDS011;53956;52.442;13.284;2023-02-28T01:50:48;11.20;;;7.27;;
18125;SDS011;53956;52.442;13.284;2023-02-28T01:53:15;9.33;;;6.87;;
18125;SDS011;53956;52.442;13.284;2023-02-28T01:55:47;8.83;;;6.80;;
18125;SDS011;53956;52.442;13.284;2023-02-28T01:58:15;13.10;;;7.13;;
18125;SDS011;53956;52.442;13.284;2023-02-28T02:00:43;10.73;;;6.93;;
18125;SDS011;53956;52.442;13.284;2023-02-28T02:03:12;10.47;;;7.43;;
18125;SDS011;53956;52.442;13.284;2023-02-28T02:05:44;10.03;;;7.40;;
18125;SDS011;53956;52.442;13.284;2023-02-28T02:08:13;10.60;;;7.40;;
18125;SDS011;53956;52.442;13.284;2023-02-28T02:10:43;9.80;;;7.60;;
18125;SDS011;53956;52.442;13.284;2023-02-28T02:13:22;11.87;;;7.57;;
18125;SDS011;53956;52.442;13.284;2023-02-28T02:16:02;10.60;;;7.17;;
18125;SDS011;53956;52.442;13.284;2023-02-28T02:18:36;10.60;;;7.77;;
18125;SDS011;53956;52.442;13.284;2023-02-28T02:21:30;10.90;;;7.40;;
18125;SDS011;53956;52.442;13.284;2023-02-28T02:24:20;9.30;;;7.23;;
18125;SDS011;53956;52.442;13.284;2023-02-28T02:27:26;11.30;;;7.83;;
18125;SDS011;53956;52.442;13.284;2023-02-28T02:33:07;12.63;;;7.80;;
18125;SDS011;53956;52.442;13.284;2023-02-28T02:35:53;11.80;;;7.83;;
18125;SDS011;53956;52.442;13.284;2023-02-28T02:38:26;10.40;;;7.57;;
18125;SDS011;53956;52.442;13.284;2023-02-28T02:41:04;9.87;;;6.87;;
18125;SDS011;53956;52.442;13.284;2023-02-28T02:43:37;10.50;;;7.70;;
18125;SDS011;53956;52.442;13.284;2023-02-28T02:46:10;12.03;;;8.03;;
18125;SDS011;53956;52.442;13.284;2023-02-28T02:48:43;12.43;;;8.10;;
18125;SDS011;53956;52.442;13.284;2023-02-28T02:51:14;10.50;;;7.80;;
18125;SDS011;53956;52.442;13.284;2023-02-28T02:53:45;11.13;;;7.53;;
18125;SDS011;53956;52.442;13.284;2023-02-28T02:56:15;11.47;;;8.07;;
18125;SDS011;53956;52.442;13.284;2023-02-28T02:58:47;10.57;;;7.43;;
18125;SDS011;53956;52.442;13.284;2023-02-28T03:01:18;13.67;;;8.17;;
18125;SDS011;53956;52.442;13.284;2023-02-28T03:03:52;12.23;;;7.87;;
18125;SDS011;53956;52.442;13.284;2023-02-28T03:06:22;13.80;;;8.00;;
18125;SDS011;53956;52.442;13.284;2023-02-28T03:08:49;10.30;;;7.50;;
18125;SDS011;53956;52.442;13.284;2023-02-28T03:11:16;13.07;;;8.33;;
18125;SDS011;53956;52.442;13.284;2023-02-28T03:13:52;9.40;;;7.73;;
18125;SDS011;53956;52.442;13.284;2023-02-28T03:16:31;11.57;;;7.77;;
18125;SDS011;53956;52.442;13.284;2023-02-28T03:19:03;9.77;;;7.80;;
18125;SDS011;53956;52.442;13.284;2023-02-28T03:21:55;12.03;;;7.93;;
18125;SDS011;53956;52.442;13.284;2023-02-28T03:24:31;11.10;;;8.37;;
18125;SDS011;53956;52.442;13.284;2023-02-28T03:27:03;10.80;;;8.27;;
18125;SDS011;53956;52.442;13.284;2023-02-28T03:29:35;11.47;;;8.27;;
18125;SDS011;53956;52.442;13.284;2023-02-28T03:32:08;12.97;;;8.13;;
18125;SDS011;53956;52.442;13.284;2023-02-28T03:34:42;12.53;;;8.70;;
18125;SDS011;53956;52.442;13.284;2023-02-28T03:37:18;12.03;;;8.53;;
18125;SDS011;53956;52.442;13.284;2023-02-28T03:39:49;11.37;;;8.13;;
18125;SDS011;53956;52.442;13.284;2023-02-28T03:42:21;11.97;;;8.03;;
18125;SDS011;53956;52.442;13.284;2023-02-28T03:44:52;12.07;;;8.70;;
18125;SDS011;53956;52.442;13.284;2023-02-28T03:47:23;14.43;;;9.27;;
18125;SDS011;53956;52.442;13.284;2023-02-28T03:49:53;12.30;;;9.03;;
18125;SDS011;53956;52.442;13.284;2023-02-28T03:52:25;13.73;;;8.40;;
18125;SDS011;53956;52.442;13.284;2023-02-28T03:54:56;12.47;;;8.97;;
18125;SDS011;53956;52.442;13.284;2023-02-28T03:57:33;12.13;;;8.87;;
18125;SDS011;53956;52.442;13.284;2023-02-28T04:00:05;13.33;;;8.90;;
18125;SDS011;53956;52.442;13.284;2023-02-28T04:02:38;12.07;;;9.10;;
18125;SDS011;53956;52.442;13.284;2023-02-28T04:05:06;13.47;;;8.47;;
18125;SDS011;53956;52.442;13.284;2023-02-28T04:07:34;12.87;;;9.33;;
18125;SDS011;53956;52.442;13.284;2023-02-28T04:10:01;12.77;;;9.10;;
18125;SDS011;53956;52.442;13.284;2023-02-28T04:12:29;14.13;;;8.73;;
18125;SDS011;53956;52.442;13.284;2023-02-28T04:14:56;14.27;;;9.20;;
18125;SDS011;53956;52.442;13.284;2023-02-28T04:17:23;14.63;;;9.43;;
18125;SDS011;53956;52.442;13.284;2023-02-28T04:19:49;13.33;;;8.47;;
18125;SDS011;53956;52.442;13.284;2023-02-28T04:22:16;13.83;;;8.80;;
18125;SDS011;53956;52.442;13.284;2023-02-28T04:24:44;12.57;;;9.00;;
18125;SDS011;53956;52.442;13.284;2023-02-28T04:27:11;12.93;;;9.20;;
18125;SDS011;53956;52.442;13.284;2023-02-28T04:29:38;15.47;;;9.87;;
18125;SDS011;53956;52.442;13.284;2023-02-28T04:32:04;12.00;;;9.13;;
18125;SDS011;53956;52.442;13.284;2023-02-28T04:34:31;13.90;;;9.20;;
18125;SDS011;53956;52.442;13.284;2023-02-28T04:36:58;14.00;;;8.83;;
18125;SDS011;53956;52.442;13.284;2023-02-28T04:39:25;14.97;;;8.80;;
18125;SDS011;53956;52.442;13.284;2023-02-28T04:41:53;13.57;;;9.07;;
18125;SDS011;53956;52.442;13.284;2023-02-28T04:44:20;12.07;;;9.10;;
18125;SDS011;53956;52.442;13.284;2023-02-28T04:46:47;15.60;;;9.37;;
18125;SDS011;53956;52.442;13.284;2023-02-28T04:49:15;15.43;;;9.53;;
18125;SDS011;53956;52.442;13.284;2023-02-28T04:51:42;14.10;;;9.90;;
18125;SDS011;53956;52.442;13.284;2023-02-28T04:54:08;15.33;;;10.00;;
18125;SDS011;53956;52.442;13.284;2023-02-28T04:56:35;14.20;;;9.63;;
18125;SDS011;53956;52.442;13.284;2023-02-28T04:59:03;14.43;;;9.60;;
18125;SDS011;53956;52.442;13.284;2023-02-28T05:01:30;16.17;;;9.93;;
18125;SDS011;53956;52.442;13.284;2023-02-28T05:04:00;13.43;;;9.37;;
18125;SDS011;53956;52.442;13.284;2023-02-28T05:06:29;11.90;;;8.87;;
18125;SDS011;53956;52.442;13.284;2023-02-28T05:08:57;14.07;;;9.77;;
18125;SDS011;53956;52.442;13.284;2023-02-28T05:11:25;13.90;;;8.80;;
18125;SDS011;53956;52.442;13.284;2023-02-28T05:13:54;13.97;;;8.67;;
18125;SDS011;53956;52.442;13.284;2023-02-28T05:16:22;13.47;;;9.20;;
18125;SDS011;53956;52.442;13.284;2023-02-28T05:18:49;15.77;;;9.40;;
18125;SDS011;53956;52.442;13.284;2023-02-28T05:21:28;13.33;;;9.33;;
18125;SDS011;53956;52.442;13.284;2023-02-28T05:23:57;13.20;;;9.03;;
18125;SDS011;53956;52.442;13.284;2023-02-28T05:26:25;14.40;;;9.73;;
18125;SDS011;53956;52.442;13.284;2023-02-28T05:28:53;13.97;;;9.50;;
18125;SDS011;53956;52.442;13.284;2023-02-28T05:31:19;14.47;;;9.97;;
18125;SDS011;53956;52.442;13.284;2023-02-28T05:33:48;15.40;;;9.97;;
18125;SDS011;53956;52.442;13.284;2023-02-28T05:36:14;14.17;;;9.23;;
18125;SDS011;53956;52.442;13.284;2023-02-28T05:38:41;13.80;;;9.50;;
18125;SDS011;53956;52.442;13.284;2023-02-28T05:41:08;12.20;;;9.17;;
18125;SDS011;53956;52.442;13.284;2023-02-28T05:43:36;12.87;;;10.07;;
18125;SDS011;53956;52.442;13.284;2023-02-28T05:46:04;14.63;;;9.67;;
18125;SDS011;53956;52.442;13.284;2023-02-28T05:48:31;17.03;;;10.63;;
18125;SDS011;53956;52.442;13.284;2023-02-28T05:50:59;15.40;;;9.83;;
18125;SDS011;53956;52.442;13.284;2023-02-28T05:53:27;13.73;;;10.03;;
18125;SDS011;53956;52.442;13.284;2023-02-28T05:55:55;13.70;;;10.30;;
18125;SDS011;53956;52.442;13.284;2023-02-28T05:58:22;14.60;;;10.17;;
18125;SDS011;53956;52.442;13.284;2023-02-28T06:00:50;14.67;;;10.67;;
18125;SDS011;53956;52.442;13.284;2023-02-28T06:03:17;14.40;;;10.00;;
18125;SDS011;53956;52.442;13.284;2023-02-28T06:05:44;15.07;;;10.93;;
18125;SDS011;53956;52.442;13.284;2023-02-28T06:08:12;16.17;;;11.10;;
18125;SDS011;53956;52.442;13.284;2023-02-28T06:10:38;16.63;;;11.13;;
18125;SDS011;53956;52.442;13.284;2023-02-28T06:13:05;16.10;;;11.30;;
18125;SDS011;53956;52.442;13.284;2023-02-28T06:15:32;18.03;;;11.50;;
18125;SDS011;53956;52.442;13.284;2023-02-28T06:17:59;16.23;;;10.80;;
18125;SDS011;53956;52.442;13.284;2023-02-28T06:20:27;16.37;;;11.50;;
18125;SDS011;53956;52.442;13.284;2023-02-28T06:22:54;20.10;;;11.40;;
18125;SDS011;53956;52.442;13.284;2023-02-28T06:25:24;18.70;;;10.70;;
18125;SDS011;53956;52.442;13.284;2023-02-28T06:27:52;17.90;;;11.33;;
18125;SDS011;53956;52.442;13.284;2023-02-28T06:30:18;19.83;;;10.83;;
18125;SDS011;53956;52.442;13.284;2023-02-28T06:32:52;17.90;;;10.30;;
18125;SDS011;53956;52.442;13.284;2023-02-28T06:35:19;16.53;;;10.37;;
18125;SDS011;53956;52.442;13.284;2023-02-28T06:37:46;17.33;;;11.10;;
18125;SDS011;53956;52.442;13.284;2023-02-28T06:40:13;15.93;;;10.30;;
18125;SDS011;53956;52.442;13.284;2023-02-28T06:42:41;16.63;;;10.33;;
18125;SDS011;53956;52.442;13.284;2023-02-28T06:45:08;16.63;;;9.70;;
18125;SDS011;53956;52.442;13.284;2023-02-28T06:47:36;18.07;;;11.10;;
18125;SDS011;53956;52.442;13.284;2023-02-28T06:50:04;16.87;;;10.30;;
18125;SDS011;53956;52.442;13.284;2023-02-28T06:52:31;15.70;;;10.27;;
18125;SDS011;53956;52.442;13.284;2023-02-28T06:55:01;18.43;;;10.30;;
18125;SDS011;53956;52.442;13.284;2023-02-28T06:57:28;12.97;;;8.93;;
18125;SDS011;53956;52.442;13.284;2023-02-28T06:59:58;14.93;;;9.77;;
18125;SDS011;53956;52.442;13.284;2023-02-28T07:02:25;17.63;;;9.53;;
18125;SDS011;53956;52.442;13.284;2023-02-28T07:04:53;15.23;;;9.33;;
18125;SDS011;53956;52.442;13.284;2023-02-28T07:07:19;13.43;;;8.93;;
18125;SDS011;53956;52.442;13.284;2023-02-28T07:09:46;13.63;;;8.43;;
18125;SDS011;53956;52.442;13.284;2023-02-28T07:12:13;16.10;;;8.70;;
18125;SDS011;53956;52.442;13.284;2023-02-28T07:14:39;11.50;;;8.33;;
18125;SDS011;53956;52.442;13.284;2023-02-28T07:17:08;12.60;;;8.00;;
18125;SDS011;53956;52.442;13.284;2023-02-28T07:19:37;15.27;;;7.78;;
18125;SDS011;53956;52.442;13.284;2023-02-28T07:22:04;13.25;;;7.70;;
18125;SDS011;53956;52.442;13.284;2023-02-28T07:24:30;13.18;;;7.75;;
18125;SDS011;53956;52.442;13.284;2023-02-28T07:26:57;12.15;;;6.85;;
18125;SDS011;53956;52.442;13.284;2023-02-28T07:29:25;11.32;;;6.82;;
18125;SDS011;53956;52.442;13.284;2023-02-28T07:31:52;13.57;;;7.95;;
18125;SDS011;53956;52.442;13.284;2023-02-28T07:34:20;11.00;;;7.03;;
18125;SDS011;53956;52.442;13.284;2023-02-28T07:36:47;12.68;;;6.95;;
18125;SDS011;53956;52.442;13.284;2023-02-28T07:39:18;9.85;;;6.70;;
18125;SDS011;53956;52.442;13.284;2023-02-28T07:41:45;11.13;;;6.55;;
18125;SDS011;53956;52.442;13.284;2023-02-28T07:44:12;11.88;;;7.10;;
18125;SDS011;53956;52.442;13.284;2023-02-28T07:46:38;10.75;;;6.65;;
18125;SDS011;53956;52.442;13.284;2023-02-28T07:49:05;11.07;;;7.00;;
18125;SDS011;53956;52.442;13.284;2023-02-28T07:51:34;10.85;;;6.05;;
18125;SDS011;53956;52.442;13.284;2023-02-28T07:54:00;8.75;;;5.78;;
18125;SDS011;53956;52.442;13.284;2023-02-28T07:56:27;8.57;;;5.40;;
18125;SDS011;53956;52.442;13.284;2023-02-28T07:58:54;8.55;;;5.35;;
18125;SDS011;53956;52.442;13.284;2023-02-28T08:01:20;10.65;;;5.63;;
18125;SDS011;53956;52.442;13.284;2023-02-28T08:03:47;7.32;;;4.53;;
18125;SDS011;53956;52.442;13.284;2023-02-28T08:06:17;6.57;;;4.28;;
18125;SDS011;53956;52.442;13.284;2023-02-28T08:08:48;7.07;;;4.10;;
18125;SDS011;53956;52.442;13.284;2023-02-28T08:11:15;5.53;;;4.15;;
18125;SDS011;53956;52.442;13.284;2023-02-28T08:13:43;7.55;;;4.28;;
18125;SDS011;53956;52.442;13.284;2023-02-28T08:16:11;6.55;;;4.35;;
18125;SDS011;53956;52.442;13.284;2023-02-28T08:18:39;5.88;;;4.28;;
18125;SDS011;53956;52.442;13.284;2023-02-28T08:21:06;6.05;;;3.17;;
18125;SDS011;53956;52.442;13.284;2023-02-28T08:23:33;4.20;;;3.33;;
18125;SDS011;53956;52.442;13.284;2023-02-28T08:26:01;5.30;;;3.40;;
18125;SDS011;53956;52.442;13.284;2023-02-28T08:28:29;5.68;;;3.88;;
18125;SDS011;53956;52.442;13.284;2023-02-28T08:30:56;4.88;;;3.80;;
18125;SDS011;53956;52.442;13.284;2023-02-28T08:33:22;4.60;;;3.40;;
18125;SDS011;53956;52.442;13.284;2023-02-28T08:35:52;6.68;;;3.92;;
18125;SDS011;53956;52.442;13.284;2023-02-28T08:38:20;5.30;;;3.63;;
18125;SDS011;53956;52.442;13.284;2023-02-28T08:40:47;5.63;;;3.03;;
18125;SDS011;53956;52.442;13.284;2023-02-28T08:43:15;6.20;;;3.30;;
18125;SDS011;53956;52.442;13.284;2023-02-28T08:45:41;4.22;;;2.70;;
18125;SDS011;53956;52.442;13.284;2023-02-28T08:48:08;4.93;;;3.10;;
18125;SDS011;53956;52.442;13.284;2023-02-28T08:50:35;7.55;;;3.20;;
18125;SDS011;53956;52.442;13.284;2023-02-28T08:53:01;4.50;;;3.00;;
18125;SDS011;53956;52.442;13.284;2023-02-28T08:55:28;5.18;;;3.20;;
18125;SDS011;53956;52.442;13.284;2023-02-28T08:57:55;3.55;;;2.88;;
18125;SDS011;53956;52.442;13.284;2023-02-28T09:00:24;4.60;;;2.90;;
18125;SDS011;53956;52.442;13.284;2023-02-28T09:02:51;5.47;;;2.72;;
18125;SDS011;53956;52.442;13.284;2023-02-28T09:05:18;5.28;;;2.90;;
18125;SDS011;53956;52.442;13.284;2023-02-28T09:07:44;9.73;;;3.53;;
18125;SDS011;53956;52.442;13.284;2023-02-28T09:10:11;19.25;;;6.32;;
18125;SDS011;53956;52.442;13.284;2023-02-28T09:12:38;7.80;;;3.58;;
18125;SDS011;53956;52.442;13.284;2023-02-28T09:15:05;4.05;;;3.10;;
18125;SDS011;53956;52.442;13.284;2023-02-28T09:17:34;4.13;;;2.80;;
18125;SDS011;53956;52.442;13.284;2023-02-28T09:20:00;4.50;;;3.10;;
18125;SDS011;53956;52.442;13.284;2023-02-28T09:22:27;5.10;;;3.10;;
18125;SDS011;53956;52.442;13.284;2023-02-28T09:24:54;3.60;;;2.97;;
18125;SDS011;53956;52.442;13.284;2023-02-28T09:27:20;4.00;;;3.40;;
18125;SDS011;53956;52.442;13.284;2023-02-28T09:29:47;4.67;;;3.60;;
18125;SDS011;53956;52.442;13.284;2023-02-28T09:32:14;4.37;;;3.30;;
18125;SDS011;53956;52.442;13.284;2023-02-28T09:34:44;7.20;;;3.90;;
18125;SDS011;53956;52.442;13.284;2023-02-28T09:37:10;6.13;;;4.37;;
18125;SDS011;53956;52.442;13.284;2023-02-28T09:39:37;6.03;;;3.90;;
18125;SDS011;53956;52.442;13.284;2023-02-28T09:42:04;7.30;;;4.23;;
18125;SDS011;53956;52.442;13.284;2023-02-28T09:44:32;6.90;;;4.10;;
18125;SDS011;53956;52.442;13.284;2023-02-28T09:47:05;6.53;;;4.17;;
18125;SDS011;53956;52.442;13.284;2023-02-28T09:49:39;6.97;;;4.10;;
18125;SDS011;53956;52.442;13.284;2023-02-28T09:52:11;6.20;;;4.00;;
18125;SDS011;53956;52.442;13.284;2023-02-28T09:54:41;5.10;;;3.97;;
18125;SDS011;53956;52.442;13.284;2023-02-28T09:57:09;6.13;;;4.20;;
18125;SDS011;53956;52.442;13.284;2023-02-28T09:59:45;5.07;;;3.77;;
18125;SDS011;53956;52.442;13.284;2023-02-28T10:02:24;5.37;;;3.70;;
18125;SDS011;53956;52.442;13.284;2023-02-28T10:05:08;6.67;;;3.57;;
18125;SDS011;53956;52.442;13.284;2023-02-28T10:07:45;6.07;;;4.00;;
18125;SDS011;53956;52.442;13.284;2023-02-28T10:10:24;4.70;;;3.93;;
18125;SDS011;53956;52.442;13.284;2023-02-28T10:12:55;4.93;;;3.60;;
18125;SDS011;53956;52.442;13.284;2023-02-28T10:15:25;4.57;;;3.90;;
18125;SDS011;53956;52.442;13.284;2023-02-28T10:17:56;6.60;;;3.97;;
18125;SDS011;53956;52.442;13.284;2023-02-28T10:20:26;5.77;;;4.00;;
18125;SDS011;53956;52.442;13.284;2023-02-28T10:22:58;5.43;;;4.20;;
18125;SDS011;53956;52.442;13.284;2023-02-28T10:25:32;5.63;;;3.97;;
18125;SDS011;53956;52.442;13.284;2023-02-28T10:28:01;4.23;;;3.53;;
18125;SDS011;53956;52.442;13.284;2023-02-28T10:30:36;5.47;;;3.53;;
18125;SDS011;53956;52.442;13.284;2023-02-28T10:33:05;4.73;;;3.70;;
18125;SDS011;53956;52.442;13.284;2023-02-28T10:35:31;6.93;;;3.90;;
18125;SDS011;53956;52.442;13.284;2023-02-28T10:38:00;5.67;;;3.80;;
18125;SDS011;53956;52.442;13.284;2023-02-28T10:40:36;4.27;;;3.40;;
18125;SDS011;53956;52.442;13.284;2023-02-28T10:43:03;5.10;;;3.70;;
18125;SDS011;53956;52.442;13.284;2023-02-28T10:45:31;4.40;;;3.50;;
18125;SDS011;53956;52.442;13.284;2023-02-28T10:48:01;7.07;;;3.73;;
18125;SDS011;53956;52.442;13.284;2023-02-28T10:50:32;5.67;;;3.70;;
18125;SDS011;53956;52.442;13.284;2023-02-28T10:56:01;5.57;;;3.97;;
18125;SDS011;53956;52.442;13.284;2023-02-28T10:58:30;4.60;;;3.80;;
18125;SDS011;53956;52.442;13.284;2023-02-28T11:01:08;8.70;;;4.00;;
18125;SDS011;53956;52.442;13.284;2023-02-28T11:03:40;5.97;;;3.73;;
18125;SDS011;53956;52.442;13.284;2023-02-28T11:06:08;5.63;;;3.90;;
18125;SDS011;53956;52.442;13.284;2023-02-28T11:08:46;4.87;;;3.90;;
18125;SDS011;53956;52.442;13.284;2023-02-28T11:11:14;5.27;;;3.73;;
18125;SDS011;53956;52.442;13.284;2023-02-28T11:13:42;4.43;;;3.93;;
18125;SDS011;53956;52.442;13.284;2023-02-28T11:16:11;5.87;;;4.40;;
18125;SDS011;53956;52.442;13.284;2023-02-28T11:18:40;4.63;;;3.70;;
18125;SDS011;53956;52.442;13.284;2023-02-28T11:21:15;5.83;;;4.03;;
18125;SDS011;53956;52.442;13.284;2023-02-28T11:23:46;5.93;;;4.60;;
18125;SDS011;53956;52.442;13.284;2023-02-28T11:26:15;6.80;;;4.00;;
18125;SDS011;53956;52.442;13.284;2023-02-28T11:29:03;5.90;;;4.27;;
18125;SDS011;53956;52.442;13.284;2023-02-28T11:31:36;6.33;;;4.20;;
18125;SDS011;53956;52.442;13.284;2023-02-28T11:34:10;6.57;;;4.03;;
18125;SDS011;53956;52.442;13.284;2023-02-28T11:36:49;6.73;;;4.43;;
18125;SDS011;53956;52.442;13.284;2023-02-28T11:39:18;5.43;;;3.93;;
18125;SDS011;53956;52.442;13.284;2023-02-28T11:41:52;5.40;;;4.10;;
18125;SDS011;53956;52.442;13.284;2023-02-28T11:44:34;6.77;;;3.80;;
18125;SDS011;53956;52.442;13.284;2023-02-28T11:47:10;6.63;;;4.13;;
18125;SDS011;53956;52.442;13.284;2023-02-28T11:49:44;6.13;;;4.10;;
18125;SDS011;53956;52.442;13.284;2023-02-28T11:52:20;6.47;;;4.33;;
18125;SDS011;53956;52.442;13.284;2023-02-28T11:55:04;5.07;;;3.97;;
18125;SDS011;53956;52.442;13.284;2023-02-28T11:57:42;6.07;;;4.00;;
18125;SDS011;53956;52.442;13.284;2023-02-28T12:00:30;6.47;;;4.10;;
18125;SDS011;53956;52.442;13.284;2023-02-28T12:03:06;8.27;;;4.30;;
18125;SDS011;53956;52.442;13.284;2023-02-28T12:05:45;7.97;;;4.03;;
18125;SDS011;53956;52.442;13.284;2023-02-28T12:08:20;8.23;;;4.80;;
18125;SDS011;53956;52.442;13.284;2023-02-28T12:10:57;7.00;;;4.70;;
18125;SDS011;53956;52.442;13.284;2023-02-28T12:13:35;9.00;;;4.73;;
18125;SDS011;53956;52.442;13.284;2023-02-28T12:16:22;7.00;;;4.70;;
18125;SDS011;53956;52.442;13.284;2023-02-28T12:19:13;7.37;;;5.27;;
18125;SDS011;53956;52.442;13.284;2023-02-28T12:21:48;7.27;;;4.90;;
18125;SDS011;53956;52.442;13.284;2023-02-28T12:24:48;30.80;;;6.03;;
18125;SDS011;53956;52.442;13.284;2023-02-28T12:27:23;13.43;;;4.70;;
18125;SDS011;53956;52.442;13.284;2023-02-28T12:29:56;9.00;;;4.97;;
18125;SDS011;53956;52.442;13.284;2023-02-28T12:32:29;7.20;;;4.80;;
18125;SDS011;53956;52.442;13.284;2023-02-28T12:35:00;6.60;;;4.77;;
18125;SDS011;53956;52.442;13.284;2023-02-28T12:37:31;7.00;;;4.83;;
18125;SDS011;53956;52.442;13.284;2023-02-28T12:40:04;8.43;;;4.43;;
18125;SDS011;53956;52.442;13.284;2023-02-28T12:42:39;5.80;;;4.07;;
18125;SDS011;53956;52.442;13.284;2023-02-28T12:45:10;5.73;;;4.50;;
18125;SDS011;53956;52.442;13.284;2023-02-28T12:47:42;20.87;;;5.50;;
18125;SDS011;53956;52.442;13.284;2023-02-28T12:50:13;7.77;;;4.80;;
18125;SDS011;53956;52.442;13.284;2023-02-28T12:52:42;11.00;;;5.67;;
18125;SDS011;53956;52.442;13.284;2023-02-28T12:55:19;8.13;;;5.30;;
18125;SDS011;53956;52.442;13.284;2023-02-28T12:57:55;7.87;;;4.93;;
18125;SDS011;53956;52.442;13.284;2023-02-28T13:00:29;7.27;;;4.93;;
18125;SDS011;53956;52.442;13.284;2023-02-28T13:06:15;10.50;;;5.07;;
18125;SDS011;53956;52.442;13.284;2023-02-28T13:09:08;8.03;;;4.73;;
18125;SDS011;53956;52.442;13.284;2023-02-28T13:11:39;7.17;;;4.80;;
18125;SDS011;53956;52.442;13.284;2023-02-28T13:14:18;7.20;;;4.93;;
18125;SDS011;53956;52.442;13.284;2023-02-28T13:16:51;15.10;;;5.07;;
18125;SDS011;53956;52.442;13.284;2023-02-28T13:19:21;9.13;;;5.40;;
18125;SDS011;53956;52.442;13.284;2023-02-28T13:21:50;8.90;;;5.07;;
18125;SDS011;53956;52.442;13.284;2023-02-28T13:24:37;8.70;;;5.03;;
18125;SDS011;53956;52.442;13.284;2023-02-28T13:27:12;8.00;;;5.03;;
18125;SDS011;53956;52.442;13.284;2023-02-28T13:30:01;7.03;;;5.37;;
18125;SDS011;53956;52.442;13.284;2023-02-28T13:32:43;8.23;;;4.97;;
18125;SDS011;53956;52.442;13.284;2023-02-28T13:35:14;7.50;;;4.90;;
18125;SDS011;53956;52.442;13.284;2023-02-28T13:38:15;8.50;;;5.10;;
18125;SDS011;53956;52.442;13.284;2023-02-28T13:40:47;7.03;;;4.80;;
18125;SDS011;53956;52.442;13.284;2023-02-28T13:43:16;7.67;;;5.50;;
18125;SDS011;53956;52.442;13.284;2023-02-28T13:48:38;7.80;;;4.63;;
18125;SDS011;53956;52.442;13.284;2023-02-28T13:54:03;7.07;;;5.17;;
18125;SDS011;53956;52.442;13.284;2023-02-28T13:56:45;7.67;;;5.33;;
18125;SDS011;53956;52.442;13.284;2023-02-28T13:59:20;7.50;;;5.07;;
18125;SDS011;53956;52.442;13.284;2023-02-28T14:02:07;9.07;;;5.30;;
18125;SDS011;53956;52.442;13.284;2023-02-28T14:04:57;11.27;;;5.40;;
18125;SDS011;53956;52.442;13.284;2023-02-28T14:07:32;6.93;;;4.77;;
18125;SDS011;53956;52.442;13.284;2023-02-28T14:10:04;7.97;;;5.17;;
18125;SDS011;53956;52.442;13.284;2023-02-28T14:15:36;11.90;;;5.50;;
18125;SDS011;53956;52.442;13.284;2023-02-28T14:18:13;8.27;;;5.13;;
18125;SDS011;53956;52.442;13.284;2023-02-28T14:20:44;7.37;;;5.20;;
18125;SDS011;53956;52.442;13.284;2023-02-28T14:23:14;7.77;;;4.93;;
18125;SDS011;53956;52.442;13.284;2023-02-28T14:25:53;8.33;;;5.20;;
18125;SDS011;53956;52.442;13.284;2023-02-28T14:28:33;8.83;;;5.33;;
18125;SDS011;53956;52.442;13.284;2023-02-28T14:31:12;8.50;;;5.00;;
18125;SDS011;53956;52.442;13.284;2023-02-28T14:36:35;6.80;;;4.93;;
18125;SDS011;53956;52.442;13.284;2023-02-28T14:39:05;10.90;;;5.30;;
18125;SDS011;53956;52.442;13.284;2023-02-28T14:41:33;10.33;;;5.13;;
18125;SDS011;53956;52.442;13.284;2023-02-28T14:44:12;9.67;;;5.10;;
18125;SDS011;53956;52.442;13.284;2023-02-28T14:46:41;7.70;;;5.40;;
18125;SDS011;53956;52.442;13.284;2023-02-28T14:49:12;11.33;;;5.57;;
18125;SDS011;53956;52.442;13.284;2023-02-28T14:51:44;10.00;;;5.40;;
18125;SDS011;53956;52.442;13.284;2023-02-28T14:54:13;8.20;;;5.23;;
18125;SDS011;53956;52.442;13.284;2023-02-28T14:56:41;9.03;;;5.40;;
18125;SDS011;53956;52.442;13.284;2023-02-28T14:59:22;8.77;;;4.80;;
18125;SDS011;53956;52.442;13.284;2023-02-28T15:01:52;13.70;;;5.10;;
18125;SDS011;53956;52.442;13.284;2023-02-28T15:04:33;9.00;;;5.23;;
18125;SDS011;53956;52.442;13.284;2023-02-28T15:07:11;8.53;;;5.87;;
18125;SDS011;53956;52.442;13.284;2023-02-28T15:09:40;6.63;;;5.00;;